createdAt,value
2024-02-11T00:02:02.096Z,75.78
2024-02-11T00:04:36.277Z,75.72
2024-02-11T00:07:10.058Z,77.07
2024-02-11T00:09:39.348Z,76.99
2024-02-11T00:12:11.044Z,74.81
2024-02-11T00:14:39.645Z,78.19
2024-02-11T00:17:11.162Z,77.01
2024-02-11T00:19:42.233Z,76.22
2024-02-11T00:22:15.092Z,77.79
2024-02-11T00:24:43.729Z,78.69
2024-02-11T00:27:15.184Z,79.37
2024-02-11T00:29:43.764Z,78.61
2024-02-11T00:32:13.641Z,79.04
2024-02-11T00:34:43.897Z,77.98
2024-02-11T00:37:16.746Z,75.78
2024-02-11T00:39:45.403Z,75.20
2024-02-11T00:42:21.492Z,77.03
2024-02-11T00:44:50.185Z,75.97
2024-02-11T00:47:24.303Z,77.60
2024-02-11T00:52:29.622Z,78.65
2024-02-11T00:55:02.466Z,76.59
2024-02-11T00:57:31.871Z,75.75
2024-02-11T01:00:01.628Z,78.42
2024-02-11T01:02:31.202Z,79.08
2024-02-11T01:05:06.469Z,79.05
2024-02-11T01:07:35.187Z,79.01
2024-02-11T01:10:11.793Z,78.82
2024-02-11T01:12:41.671Z,79.45
2024-02-11T01:15:17.862Z,79.72
2024-02-11T01:17:48.120Z,80.53
2024-02-11T01:20:19.229Z,82.68
2024-02-11T01:22:50.298Z,80.05
2024-02-11T01:25:21.561Z,78.50
2024-02-11T01:27:54.101Z,80.87
2024-02-11T01:30:24.772Z,81.00
2024-02-11T01:32:59.011Z,81.11
2024-02-11T01:35:38.411Z,79.61
2024-02-11T01:38:07.613Z,79.35
2024-02-11T01:40:37.575Z,78.28
2024-02-11T01:43:09.209Z,79.47
2024-02-11T01:45:38.574Z,79.93
2024-02-11T01:48:07.651Z,79.56
2024-02-11T01:50:40.423Z,81.27
2024-02-11T01:53:10.572Z,81.49
2024-02-11T01:55:42.889Z,81.98
2024-02-11T01:58:11.903Z,80.04
2024-02-11T02:00:43.786Z,78.38
2024-02-11T02:03:12.743Z,80.04
2024-02-11T02:05:43.818Z,79.65
2024-02-11T02:08:15.359Z,77.68
2024-02-11T02:10:46.597Z,79.71
2024-02-11T02:13:15.999Z,78.25
2024-02-11T02:15:47.142Z,78.85
2024-02-11T02:18:16.129Z,80.01
2024-02-11T02:20:51.592Z,79.84
2024-02-11T02:23:21.918Z,81.33
2024-02-11T02:25:50.977Z,81.37
2024-02-11T02:28:21.681Z,79.10
2024-02-11T02:30:54.016Z,78.95
2024-02-11T02:33:22.712Z,76.97
2024-02-11T02:35:53.244Z,76.41
2024-02-11T02:38:23.370Z,76.54
2024-02-11T02:40:55.895Z,75.75
2024-02-11T02:43:26.454Z,75.62
2024-02-11T02:45:56.775Z,73.21
2024-02-11T02:48:25.880Z,74.04
2024-02-11T02:51:01.986Z,73.04
2024-02-11T02:53:39.399Z,74.64
2024-02-11T02:56:08.682Z,72.70
2024-02-11T02:58:42.740Z,74.73
2024-02-11T03:01:13.378Z,74.11
2024-02-11T03:03:42.450Z,73.43
2024-02-11T03:06:11.274Z,73.07
2024-02-11T03:08:48.941Z,73.03
2024-02-11T03:11:17.867Z,73.73
2024-02-11T03:13:53.082Z,73.54
2024-02-11T03:16:22.317Z,73.89
2024-02-11T03:18:52.272Z,75.09
2024-02-11T03:21:24.169Z,75.36
2024-02-11T03:23:58.044Z,74.45
2024-02-11T03:26:27.605Z,74.50
2024-02-11T03:28:58.193Z,74.21
2024-02-11T03:31:32.246Z,74.76
2024-02-11T03:34:02.325Z,74.22
2024-02-11T03:36:33.031Z,72.82
2024-02-11T03:39:05.744Z,72.44
2024-02-11T03:41:36.787Z,73.00
2024-02-11T03:44:06.430Z,73.15
2024-02-11T03:46:36.120Z,72.70
2024-02-11T03:49:05.405Z,75.01
2024-02-11T03:51:36.176Z,73.64
2024-02-11T03:54:06.597Z,75.37
2024-02-11T03:56:36.559Z,75.99
2024-02-11T03:59:05.944Z,74.58
2024-02-11T04:01:38.959Z,74.05
2024-02-11T04:04:07.962Z,77.14
2024-02-11T04:06:38.961Z,76.83
2024-02-11T04:09:11.018Z,77.50
2024-02-11T04:11:40.214Z,76.07
2024-02-11T04:14:10.735Z,74.79
2024-02-11T04:16:45.111Z,76.15
2024-02-11T04:19:14.054Z,78.60
2024-02-11T04:21:45.605Z,78.35
2024-02-11T04:24:17.235Z,76.18
2024-02-11T04:26:48.419Z,77.32
2024-02-11T04:29:17.086Z,76.90
2024-02-11T04:31:52.533Z,78.22
2024-02-11T04:34:30.383Z,74.73
2024-02-11T04:36:59.353Z,77.01
2024-02-11T04:39:32.820Z,75.97
2024-02-11T04:42:01.907Z,75.03
2024-02-11T04:44:36.647Z,76.57
2024-02-11T04:47:05.621Z,74.24
2024-02-11T04:49:37.059Z,73.41
2024-02-11T04:52:08.693Z,73.08
2024-02-11T04:54:44.385Z,76.44
2024-02-11T04:57:19.918Z,74.26
2024-02-11T04:59:49.186Z,73.41
2024-02-11T05:02:20.615Z,73.46
2024-02-11T05:04:51.690Z,74.06
2024-02-11T05:07:23.721Z,75.15
2024-02-11T05:09:54.038Z,75.78
2024-02-11T05:12:23.184Z,74.82
2024-02-11T05:14:52.433Z,75.09
2024-02-11T05:17:23.209Z,74.76
2024-02-11T05:19:54.787Z,77.55
2024-02-11T05:22:27.313Z,77.85
2024-02-11T05:24:58.908Z,76.21
2024-02-11T05:27:28.760Z,74.11
2024-02-11T05:29:58.100Z,75.00
2024-02-11T05:32:29.876Z,75.51
2024-02-11T05:34:59.927Z,74.32
2024-02-11T05:37:30.243Z,75.28
2024-02-11T05:40:00.540Z,75.32
2024-02-11T05:42:33.682Z,76.67
2024-02-11T05:45:02.600Z,74.26
2024-02-11T05:47:34.457Z,75.69
2024-02-11T05:50:06.545Z,77.11
2024-02-11T05:52:37.333Z,76.18
2024-02-11T05:55:13.315Z,77.20
2024-02-11T05:57:42.634Z,76.24
2024-02-11T06:00:19.877Z,76.21
2024-02-11T06:02:54.452Z,76.60
2024-02-11T06:05:30.878Z,76.02
2024-02-11T06:08:05.067Z,75.59
2024-02-11T06:10:35.547Z,75.52
2024-02-11T06:13:10.612Z,76.02
2024-02-11T06:15:46.020Z,77.55
2024-02-11T06:18:15.372Z,77.86
2024-02-11T06:20:47.636Z,80.55
2024-02-11T06:23:18.189Z,79.30
2024-02-11T06:25:58.448Z,78.23
2024-02-11T06:28:29.223Z,80.12
2024-02-11T06:30:57.653Z,79.03
2024-02-11T06:33:28.138Z,81.00
2024-02-11T06:35:58.952Z,80.17
2024-02-11T06:38:32.553Z,77.74
2024-02-11T06:41:02.590Z,82.23
2024-02-11T06:43:36.072Z,79.56
2024-02-11T06:46:05.663Z,82.32
2024-02-11T06:48:38.049Z,81.89
2024-02-11T06:51:08.458Z,82.99
2024-02-11T06:53:38.009Z,80.36
2024-02-11T06:56:09.192Z,80.53
2024-02-11T06:58:42.726Z,80.86
2024-02-11T07:01:15.221Z,78.59
2024-02-11T07:03:53.029Z,82.74
2024-02-11T07:06:24.596Z,80.36
2024-02-11T07:08:53.628Z,81.71
2024-02-11T07:11:24.547Z,80.17
2024-02-11T07:13:54.485Z,79.97
2024-02-11T07:16:29.353Z,80.15
2024-02-11T07:18:58.923Z,81.25
2024-02-11T07:21:38.041Z,80.46
2024-02-11T07:24:10.272Z,80.34
2024-02-11T07:26:40.637Z,79.18
2024-02-11T07:29:11.297Z,79.42
2024-02-11T07:31:41.361Z,79.44
2024-02-11T07:34:15.580Z,80.33
2024-02-11T07:36:45.781Z,79.21
2024-02-11T07:39:24.154Z,82.69
2024-02-11T07:41:59.574Z,81.04
2024-02-11T07:44:29.742Z,82.93
2024-02-11T07:47:07.503Z,80.62
2024-02-11T07:49:39.964Z,81.44
2024-02-11T07:52:08.807Z,81.97
2024-02-11T07:54:40.882Z,81.85
2024-02-11T07:57:11.812Z,81.12
2024-02-11T07:59:40.774Z,80.74
2024-02-11T08:02:10.137Z,84.30
2024-02-11T08:04:39.297Z,84.69
2024-02-11T08:07:07.195Z,85.97
2024-02-11T08:09:37.054Z,86.91
2024-02-11T08:12:15.607Z,82.94
2024-02-11T08:14:45.022Z,82.72
2024-02-11T08:17:16.770Z,80.96
2024-02-11T08:19:49.129Z,83.08
2024-02-11T08:22:20.697Z,83.13
2024-02-11T08:24:49.383Z,82.81
2024-02-11T08:27:19.641Z,82.72
2024-02-11T08:29:53.775Z,81.72
2024-02-11T08:32:22.801Z,82.63
2024-02-11T08:34:54.761Z,80.55
2024-02-11T08:37:24.028Z,80.33
2024-02-11T08:39:52.699Z,85.87
2024-02-11T08:42:22.976Z,82.52
2024-02-11T08:44:54.331Z,83.29
2024-02-11T08:47:23.171Z,82.61
2024-02-11T08:49:58.862Z,81.83
2024-02-11T08:52:28.146Z,82.29
2024-02-11T08:54:58.086Z,81.63
2024-02-11T08:57:28.645Z,81.77
2024-02-11T09:00:01.183Z,83.05
2024-02-11T09:02:32.252Z,83.67
2024-02-11T09:05:05.659Z,84.66
2024-02-11T09:07:36.264Z,86.34
2024-02-11T09:10:15.301Z,82.64
2024-02-11T09:12:46.075Z,85.10
2024-02-11T09:15:18.089Z,87.36
2024-02-11T09:17:55.453Z,86.72
2024-02-11T09:20:32.341Z,89.33
2024-02-11T09:23:01.182Z,93.39
2024-02-11T09:25:44.144Z,95.16
2024-02-11T09:28:15.012Z,92.92
2024-02-11T09:30:43.980Z,91.34
2024-02-11T09:33:12.477Z,91.45
2024-02-11T09:35:41.175Z,91.01
2024-02-11T09:38:16.602Z,87.99
2024-02-11T09:40:45.826Z,89.20
2024-02-11T09:43:17.998Z,88.89
2024-02-11T09:45:47.041Z,90.23
2024-02-11T09:48:16.984Z,92.78
2024-02-11T09:50:45.829Z,89.05
2024-02-11T09:53:19.107Z,88.86
2024-02-11T09:55:48.372Z,88.65
2024-02-11T09:58:25.951Z,86.59
2024-02-11T10:01:00.778Z,88.68
2024-02-11T10:03:29.916Z,88.46
2024-02-11T10:06:11.366Z,89.49
2024-02-11T10:08:47.270Z,91.55
2024-02-11T10:11:18.976Z,87.17
2024-02-11T10:14:00.956Z,87.37
2024-02-11T10:16:30.100Z,86.10
2024-02-11T10:19:00.542Z,84.48
2024-02-11T10:21:31.371Z,83.26
2024-02-11T10:24:00.983Z,84.24
2024-02-11T10:26:33.590Z,88.67
2024-02-11T10:29:06.778Z,89.89
2024-02-11T10:31:41.424Z,87.78
2024-02-11T10:34:15.895Z,84.54
2024-02-11T10:36:48.413Z,86.45
2024-02-11T10:39:17.673Z,84.84
2024-02-11T10:41:46.015Z,83.25
2024-02-11T10:44:23.714Z,83.53
2024-02-11T10:46:58.078Z,87.32
2024-02-11T10:49:27.912Z,87.32
2024-02-11T10:52:01.509Z,88.13
2024-02-11T10:54:31.139Z,93.36
2024-02-11T10:57:03.001Z,89.40
2024-02-11T10:59:36.279Z,89.51
2024-02-11T11:02:07.339Z,87.26
2024-02-11T11:04:38.291Z,86.49
2024-02-11T11:07:13.759Z,87.21
2024-02-11T11:09:42.704Z,86.06
2024-02-11T11:12:19.443Z,82.58
2024-02-11T11:14:57.406Z,84.16
2024-02-11T11:17:35.280Z,84.92
2024-02-11T11:20:14.308Z,82.19
2024-02-11T11:22:43.341Z,80.40
2024-02-11T11:25:18.275Z,79.81
2024-02-11T11:27:47.749Z,86.40
2024-02-11T11:30:21.228Z,83.98
2024-02-11T11:32:54.777Z,81.80
2024-02-11T11:35:29.223Z,82.71
2024-02-11T11:38:02.111Z,80.95
2024-02-11T11:40:31.650Z,82.59
2024-02-11T11:43:13.580Z,82.25
2024-02-11T11:45:52.970Z,81.58
2024-02-11T11:48:24.455Z,80.49
2024-02-11T11:50:57.657Z,80.55
2024-02-11T11:53:31.116Z,79.23
2024-02-11T11:56:02.908Z,80.03
2024-02-11T11:58:36.508Z,79.78
2024-02-11T12:01:08.358Z,81.65
2024-02-11T12:03:42.705Z,81.18
2024-02-11T12:06:24.522Z,79.62
2024-02-11T12:08:58.012Z,82.36
2024-02-11T12:11:26.851Z,79.70
2024-02-11T12:13:56.023Z,81.25
2024-02-11T12:16:28.009Z,79.99
2024-02-11T12:18:59.969Z,82.76
2024-02-11T12:21:28.441Z,81.20
2024-02-11T12:24:02.023Z,84.18
2024-02-11T12:26:31.043Z,83.37
2024-02-11T12:29:01.470Z,79.42
2024-02-11T12:31:31.311Z,80.30
2024-02-11T12:34:03.266Z,80.77
2024-02-11T12:36:32.341Z,79.42
2024-02-11T12:39:04.647Z,79.18
2024-02-11T12:41:34.185Z,80.77
2024-02-11T12:44:09.058Z,80.60
2024-02-11T12:46:38.930Z,79.80
2024-02-11T12:49:09.791Z,80.20
2024-02-11T12:51:38.530Z,79.52
2024-02-11T12:54:08.759Z,79.08
2024-02-11T12:56:40.987Z,79.13
2024-02-11T12:59:12.861Z,79.78
2024-02-11T13:01:58.530Z,78.95
2024-02-11T13:04:34.764Z,79.09
2024-02-11T13:07:03.749Z,78.38
2024-02-11T13:09:38.843Z,78.33
2024-02-11T13:12:07.822Z,78.29
2024-02-11T13:14:37.583Z,78.40
2024-02-11T13:17:08.432Z,78.88
2024-02-11T13:19:39.664Z,78.08
2024-02-11T13:22:14.381Z,78.10
2024-02-11T13:24:50.693Z,76.46
2024-02-11T13:27:22.252Z,77.21
2024-02-11T13:29:51.212Z,77.40
2024-02-11T13:32:30.960Z,76.72
2024-02-11T13:35:01.600Z,76.78
2024-02-11T13:37:32.403Z,76.65
2024-02-11T13:40:12.295Z,76.66
2024-02-11T13:42:42.697Z,76.17
2024-02-11T13:45:19.318Z,74.89
2024-02-11T13:47:49.835Z,74.26
2024-02-11T13:50:19.537Z,74.84
2024-02-11T13:52:52.122Z,73.35
2024-02-11T13:55:22.114Z,73.61
2024-02-11T13:57:55.309Z,73.66
2024-02-11T14:00:25.453Z,73.87
2024-02-11T14:02:59.869Z,73.55
2024-02-11T14:05:29.294Z,72.50
2024-02-11T14:08:05.087Z,72.05
2024-02-11T14:10:41.554Z,72.72
2024-02-11T14:13:10.451Z,72.44
2024-02-11T14:15:45.036Z,72.69
2024-02-11T14:18:21.382Z,73.22
2024-02-11T14:20:53.900Z,73.02
2024-02-11T14:23:27.253Z,72.21
2024-02-11T14:25:56.052Z,73.57
2024-02-11T14:28:25.399Z,72.81
2024-02-11T14:30:54.644Z,73.36
2024-02-11T14:33:27.305Z,72.77
2024-02-11T14:35:59.298Z,74.00
2024-02-11T14:38:30.724Z,73.30
2024-02-11T14:41:01.135Z,71.85
2024-02-11T14:43:30.418Z,72.16
2024-02-11T14:45:59.747Z,71.77
2024-02-11T14:48:33.580Z,72.27
2024-02-11T14:51:03.465Z,72.73
2024-02-11T14:53:33.938Z,72.51
2024-02-11T14:56:02.917Z,72.32
2024-02-11T14:58:35.328Z,73.08
2024-02-11T15:01:07.811Z,73.00
2024-02-11T15:03:47.881Z,71.37
2024-02-11T15:06:18.374Z,72.09
2024-02-11T15:08:48.282Z,72.59
2024-02-11T15:11:19.689Z,72.39
2024-02-11T15:13:51.339Z,72.44
2024-02-11T15:16:21.889Z,72.25
2024-02-11T15:18:51.930Z,71.38
2024-02-11T15:21:24.829Z,71.55
2024-02-11T15:23:55.225Z,72.63
2024-02-11T15:26:25.449Z,71.26
2024-02-11T15:28:54.238Z,70.87
2024-02-11T15:31:26.395Z,71.30
2024-02-11T15:33:56.896Z,71.77
2024-02-11T15:36:25.989Z,71.86
2024-02-11T15:38:54.644Z,72.45
2024-02-11T15:41:23.724Z,71.71
2024-02-11T15:43:55.222Z,71.97
2024-02-11T15:46:30.613Z,71.84
2024-02-11T15:49:01.013Z,72.36
2024-02-11T15:51:32.410Z,71.71
2024-02-11T15:54:01.361Z,71.87
2024-02-11T15:56:31.685Z,72.06
2024-02-11T15:59:01.484Z,72.27
2024-02-11T16:01:37.580Z,72.57
2024-02-11T16:04:15.254Z,72.80
2024-02-11T16:06:44.043Z,73.00
2024-02-11T16:09:16.863Z,72.56
2024-02-11T16:11:46.162Z,72.82
2024-02-11T16:14:24.851Z,72.41
2024-02-11T16:17:02.920Z,73.00
2024-02-11T16:22:15.873Z,72.79
2024-02-11T16:24:46.424Z,73.34
2024-02-11T16:27:15.122Z,72.48
2024-02-11T16:29:44.634Z,72.76
2024-02-11T16:32:13.366Z,72.76
2024-02-11T16:34:46.226Z,72.26
2024-02-11T16:37:16.906Z,72.45
2024-02-11T16:39:48.749Z,72.19
2024-02-11T16:42:18.676Z,72.65
2024-02-11T16:44:50.613Z,73.20
2024-02-11T16:47:22.761Z,72.96
2024-02-11T16:49:56.343Z,73.20
2024-02-11T16:52:25.450Z,73.06
2024-02-11T16:54:54.092Z,73.35
2024-02-11T16:57:22.457Z,72.80
2024-02-11T16:59:55.620Z,73.06
2024-02-11T17:02:24.329Z,72.83
2024-02-11T17:04:55.170Z,72.88
2024-02-11T17:07:26.109Z,73.18
2024-02-11T17:09:56.335Z,73.34
2024-02-11T17:12:24.699Z,73.09
2024-02-11T17:14:59.003Z,73.34
2024-02-11T17:17:27.793Z,73.08
2024-02-11T17:20:00.209Z,72.53
2024-02-11T17:22:30.485Z,72.99
2024-02-11T17:25:00.443Z,72.74
2024-02-11T17:27:29.148Z,73.27
2024-02-11T17:30:08.282Z,73.09
2024-02-11T17:32:45.068Z,72.69
2024-02-11T17:35:18.333Z,73.31
2024-02-11T17:37:56.445Z,73.22
2024-02-11T17:40:28.392Z,73.92
2024-02-11T17:42:57.044Z,73.40
2024-02-11T17:45:29.212Z,73.31
2024-02-11T17:47:59.171Z,73.46
2024-02-11T17:50:31.510Z,73.15
2024-02-11T17:53:01.972Z,74.03
2024-02-11T17:55:34.616Z,73.94
2024-02-11T17:58:03.923Z,73.54
2024-02-11T18:00:45.943Z,73.39
2024-02-11T18:03:27.864Z,74.07
2024-02-11T18:06:01.969Z,73.77
2024-02-11T18:08:32.056Z,74.55
2024-02-11T18:11:00.748Z,74.38
2024-02-11T18:13:29.720Z,74.64
2024-02-11T18:16:02.419Z,75.02
2024-02-11T18:18:34.604Z,74.82
2024-02-11T18:21:11.226Z,74.60
2024-02-11T18:23:48.666Z,74.49
2024-02-11T18:26:19.517Z,75.03
2024-02-11T18:28:48.796Z,75.03
2024-02-11T18:31:18.430Z,75.81
2024-02-11T18:33:47.645Z,74.93
2024-02-11T18:36:16.082Z,72.55
2024-02-11T18:38:48.993Z,75.59
2024-02-11T18:41:18.212Z,78.94
2024-02-11T18:43:51.690Z,78.23
2024-02-11T18:46:22.022Z,79.81
2024-02-11T18:48:53.270Z,79.80
2024-02-11T18:51:21.703Z,79.80
2024-02-11T18:53:55.157Z,80.48
2024-02-11T18:56:24.000Z,81.38
2024-02-11T18:59:00.407Z,80.99
2024-02-11T19:01:29.593Z,80.94
2024-02-11T19:03:58.437Z,80.99
2024-02-11T19:06:28.654Z,80.41
2024-02-11T19:08:59.904Z,80.01
2024-02-11T19:11:29.081Z,81.18
2024-02-11T19:14:02.138Z,80.00
2024-02-11T19:16:30.856Z,80.84
2024-02-11T19:19:00.276Z,79.37
2024-02-11T19:21:31.671Z,79.31
2024-02-11T19:24:07.250Z,78.92
2024-02-11T19:26:38.626Z,79.92
2024-02-11T19:29:14.940Z,79.62
2024-02-11T19:31:47.891Z,78.16
2024-02-11T19:34:39.824Z,78.59
2024-02-11T19:37:11.488Z,79.11
2024-02-11T19:39:41.897Z,79.02
2024-02-11T19:42:14.786Z,79.71
2024-02-11T19:44:43.966Z,79.35
2024-02-11T19:47:13.162Z,79.01
2024-02-11T19:49:42.009Z,80.13
2024-02-11T19:52:11.478Z,79.35
2024-02-11T19:54:43.375Z,79.01
2024-02-11T19:57:17.113Z,78.84
2024-02-11T19:59:46.267Z,78.88
2024-02-11T20:02:18.601Z,79.01
2024-02-11T20:04:48.147Z,78.83
2024-02-11T20:07:18.765Z,79.27
2024-02-11T20:09:49.244Z,78.25
2024-02-11T20:12:22.070Z,78.26
2024-02-11T20:14:52.455Z,77.33
2024-02-11T20:17:22.577Z,77.91
2024-02-11T20:19:53.068Z,78.13
2024-02-11T20:22:22.406Z,77.73
2024-02-11T20:24:53.014Z,77.37
2024-02-11T20:27:25.739Z,76.41
2024-02-11T20:29:55.180Z,76.24
2024-02-11T20:32:29.545Z,76.38
2024-02-11T20:34:59.216Z,76.61
2024-02-11T20:37:41.943Z,75.62
2024-02-11T20:40:17.153Z,75.77
2024-02-11T20:42:54.180Z,76.22
2024-02-11T20:45:24.271Z,76.44
2024-02-11T20:47:55.950Z,76.43
2024-02-11T20:50:25.600Z,76.03
2024-02-11T20:52:54.504Z,75.52
2024-02-11T20:55:27.896Z,76.35
2024-02-11T20:57:58.631Z,76.12
2024-02-11T21:00:28.280Z,76.23
2024-02-11T21:02:59.001Z,77.04
2024-02-11T21:05:28.764Z,75.82
2024-02-11T21:08:01.239Z,76.56
2024-02-11T21:10:33.496Z,75.48
2024-02-11T21:13:25.382Z,75.31
2024-02-11T21:15:54.125Z,75.12
2024-02-11T21:18:27.116Z,74.21
2024-02-11T21:20:56.597Z,75.84
2024-02-11T21:23:26.236Z,75.54
2024-02-11T21:25:56.408Z,76.17
2024-02-11T21:28:30.721Z,75.58
2024-02-11T21:31:20.025Z,75.19
2024-02-11T21:33:51.872Z,74.48
2024-02-11T21:36:20.372Z,75.43
2024-02-11T21:38:52.365Z,75.70
2024-02-11T21:41:22.420Z,75.50
2024-02-11T21:43:54.645Z,74.68
2024-02-11T21:46:26.509Z,74.89
2024-02-11T21:49:03.843Z,74.70
2024-02-11T21:51:37.864Z,75.53
2024-02-11T21:54:07.257Z,75.56
2024-02-11T21:56:39.991Z,75.25
2024-02-11T21:59:09.159Z,74.72
2024-02-11T22:01:38.416Z,74.99
2024-02-11T22:04:09.907Z,75.07
2024-02-11T22:06:45.188Z,73.92
2024-02-11T22:09:15.028Z,74.26
2024-02-11T22:11:46.570Z,74.04
2024-02-11T22:14:15.941Z,74.84
2024-02-11T22:16:45.447Z,74.67
2024-02-11T22:19:13.886Z,74.50
2024-02-11T22:21:49.110Z,75.19
2024-02-11T22:24:18.602Z,74.96
2024-02-11T22:26:51.147Z,74.68
2024-02-11T22:29:19.554Z,73.99
2024-02-11T22:31:52.022Z,74.49
2024-02-11T22:34:21.413Z,73.93
2024-02-11T22:36:51.430Z,74.56
2024-02-11T22:39:22.498Z,74.72
2024-02-11T22:41:53.378Z,74.45
2024-02-11T22:44:22.146Z,75.50
2024-02-11T22:46:54.257Z,75.19
2024-02-11T22:49:23.095Z,74.79
2024-02-11T22:51:56.027Z,73.47
2024-02-11T22:54:26.164Z,73.36
2024-02-11T22:57:00.446Z,73.92
2024-02-11T22:59:30.147Z,73.80
2024-02-11T23:02:01.277Z,73.14
2024-02-11T23:04:30.277Z,74.06
2024-02-11T23:07:01.546Z,74.32
2024-02-11T23:09:31.091Z,74.83
2024-02-11T23:12:04.032Z,74.31
2024-02-11T23:14:33.313Z,74.01
2024-02-11T23:17:05.639Z,74.52
2024-02-11T23:19:54.234Z,73.40
2024-02-11T23:22:26.841Z,74.08
2024-02-11T23:24:55.506Z,74.91
2024-02-11T23:27:28.718Z,74.06
2024-02-11T23:29:57.416Z,74.36
2024-02-11T23:32:26.730Z,74.87
2024-02-11T23:34:59.125Z,75.43
2024-02-11T23:37:36.610Z,75.47
2024-02-11T23:40:08.455Z,76.01
2024-02-11T23:42:41.053Z,75.52
2024-02-11T23:45:14.174Z,74.65
2024-02-11T23:47:43.286Z,74.71
2024-02-11T23:50:20.365Z,75.40
2024-02-11T23:52:49.602Z,74.42
2024-02-11T23:55:18.646Z,74.45
2024-02-11T23:57:49.075Z,73.97
